createdAt,value
2023-02-04T00:01:22.603Z,100.00
2023-02-04T00:03:52.520Z,100.00
2023-02-04T00:06:21.125Z,100.00
2023-02-04T00:08:49.684Z,100.00
2023-02-04T00:11:18.161Z,100.00
2023-02-04T00:13:47.339Z,100.00
2023-02-04T00:16:16.241Z,100.00
2023-02-04T00:18:44.752Z,100.00
2023-02-04T00:21:13.497Z,100.00
2023-02-04T00:23:42.114Z,100.00
2023-02-04T00:26:10.639Z,100.00
2023-02-04T00:28:39.132Z,100.00
2023-02-04T00:31:07.764Z,100.00
2023-02-04T00:33:36.302Z,100.00
2023-02-04T00:36:05.091Z,100.00
2023-02-04T00:38:33.664Z,100.00
2023-02-04T00:41:02.143Z,100.00
2023-02-04T00:43:30.659Z,100.00
2023-02-04T00:45:59.710Z,100.00
2023-02-04T00:48:29.362Z,100.00
2023-02-04T00:50:57.736Z,100.00
2023-02-04T00:53:26.597Z,100.00
2023-02-04T00:55:55.210Z,100.00
2023-02-04T00:58:23.762Z,100.00
2023-02-04T01:00:52.384Z,100.00
2023-02-04T01:03:20.938Z,100.00
2023-02-04T01:05:49.901Z,100.00
2023-02-04T01:08:18.442Z,100.00
2023-02-04T01:10:46.907Z,100.00
2023-02-04T01:13:15.394Z,100.00
2023-02-04T01:15:43.930Z,100.00
2023-02-04T01:18:12.906Z,100.00
2023-02-04T01:20:41.336Z,100.00
2023-02-04T01:23:10.498Z,100.00
2023-02-04T01:25:38.992Z,100.00
2023-02-04T01:28:08.452Z,100.00
2023-02-04T01:30:37.025Z,100.00
2023-02-04T01:33:05.608Z,100.00
2023-02-04T01:35:34.251Z,100.00
2023-02-04T01:38:02.791Z,100.00
2023-02-04T01:40:31.999Z,100.00
2023-02-04T01:43:00.862Z,100.00
2023-02-04T01:45:31.302Z,100.00
2023-02-04T01:48:00.103Z,100.00
2023-02-04T01:50:28.846Z,100.00
2023-02-04T01:52:58.050Z,100.00
2023-02-04T01:55:30.600Z,100.00
2023-02-04T01:58:00.234Z,100.00
2023-02-04T02:00:33.692Z,100.00
2023-02-04T02:03:03.827Z,100.00
2023-02-04T02:05:39.251Z,100.00
2023-02-04T02:08:08.834Z,100.00
2023-02-04T02:10:42.232Z,100.00
2023-02-04T02:13:13.460Z,100.00
2023-02-04T02:15:42.954Z,100.00
2023-02-04T02:18:11.881Z,100.00
2023-02-04T02:20:44.170Z,100.00
2023-02-04T02:23:43.281Z,100.00
2023-02-04T02:26:12.212Z,100.00
2023-02-04T02:28:41.040Z,100.00
2023-02-04T02:31:09.748Z,100.00
2023-02-04T02:33:38.353Z,100.00
2023-02-04T02:36:07.370Z,100.00
2023-02-04T02:38:36.138Z,100.00
2023-02-04T02:41:05.898Z,100.00
2023-02-04T02:43:36.323Z,100.00
2023-02-04T02:46:07.218Z,100.00
2023-02-04T02:48:35.960Z,100.00
2023-02-04T02:51:04.669Z,100.00
2023-02-04T02:53:33.548Z,100.00
2023-02-04T02:56:04.933Z,100.00
2023-02-04T02:58:36.936Z,100.00
2023-02-04T03:01:07.852Z,100.00
2023-02-04T03:03:43.745Z,100.00
2023-02-04T03:06:23.696Z,100.00
2023-02-04T03:08:56.280Z,100.00
2023-02-04T03:11:26.540Z,100.00
2023-02-04T03:13:56.683Z,100.00
2023-02-04T03:16:25.187Z,100.00
2023-02-04T03:18:56.180Z,100.00
2023-02-04T03:21:24.748Z,100.00
2023-02-04T03:23:56.717Z,100.00
2023-02-04T03:26:26.498Z,100.00
2023-02-04T03:28:55.262Z,100.00
2023-02-04T03:31:23.954Z,100.00
2023-02-04T03:33:52.506Z,100.00
2023-02-04T03:36:20.974Z,100.00
2023-02-04T03:38:49.846Z,100.00
2023-02-04T03:41:19.325Z,100.00
2023-02-04T03:43:48.053Z,100.00
2023-02-04T03:46:16.823Z,100.00
2023-02-04T03:48:45.303Z,100.00
2023-02-04T03:51:13.751Z,100.00
2023-02-04T03:53:42.152Z,100.00
2023-02-04T03:56:10.781Z,100.00
2023-02-04T03:58:39.255Z,100.00
2023-02-04T04:01:07.918Z,100.00
2023-02-04T04:03:36.750Z,100.00
2023-02-04T04:06:06.617Z,100.00
2023-02-04T04:08:35.094Z,100.00
2023-02-04T04:11:03.631Z,100.00
2023-02-04T04:13:32.172Z,100.00
2023-02-04T04:16:00.679Z,100.00
2023-02-04T04:18:29.446Z,100.00
2023-02-04T04:20:57.907Z,100.00
2023-02-04T04:23:26.346Z,100.00
2023-02-04T04:25:54.859Z,100.00
2023-02-04T04:28:23.331Z,100.00
2023-02-04T04:30:51.845Z,100.00
2023-02-04T04:33:20.445Z,100.00
2023-02-04T04:35:49.034Z,100.00
2023-02-04T04:38:17.476Z,100.00
2023-02-04T04:40:46.843Z,100.00
2023-02-04T04:43:15.329Z,100.00
2023-02-04T04:45:43.849Z,100.00
2023-02-04T04:48:12.482Z,100.00
2023-02-04T04:50:41.009Z,100.00
2023-02-04T04:53:11.530Z,100.00
2023-02-04T04:55:41.467Z,100.00
2023-02-04T04:58:11.050Z,100.00
2023-02-04T05:00:39.597Z,100.00
2023-02-04T05:03:08.057Z,100.00
2023-02-04T05:05:40.192Z,100.00
2023-02-04T05:08:13.392Z,100.00
2023-02-04T05:10:42.221Z,100.00
2023-02-04T05:13:11.678Z,100.00
2023-02-04T05:15:40.258Z,100.00
2023-02-04T05:18:08.799Z,100.00
2023-02-04T05:20:37.524Z,100.00
2023-02-04T05:23:06.071Z,100.00
2023-02-04T05:25:34.587Z,100.00
2023-02-04T05:28:03.133Z,100.00
2023-02-04T05:30:32.225Z,100.00
2023-02-04T05:33:01.060Z,100.00
2023-02-04T05:35:29.492Z,100.00
2023-02-04T05:37:57.987Z,100.00
2023-02-04T05:40:26.386Z,100.00
2023-02-04T05:42:54.847Z,100.00
2023-02-04T05:45:23.414Z,100.00
2023-02-04T05:47:52.044Z,100.00
2023-02-04T05:50:20.496Z,100.00
2023-02-04T05:52:49.027Z,100.00
2023-02-04T05:55:17.723Z,100.00
2023-02-04T05:57:46.173Z,100.00
2023-02-04T06:00:15.175Z,100.00
2023-02-04T06:02:43.598Z,100.00
2023-02-04T06:05:12.353Z,100.00
2023-02-04T06:07:40.976Z,100.00
2023-02-04T06:10:11.344Z,100.00
2023-02-04T06:12:39.870Z,100.00
2023-02-04T06:15:09.407Z,100.00
2023-02-04T06:17:38.145Z,100.00
2023-02-04T06:20:07.894Z,100.00
2023-02-04T06:22:36.413Z,100.00
2023-02-04T06:25:05.075Z,100.00
2023-02-04T06:27:33.542Z,100.00
2023-02-04T06:30:02.040Z,100.00
2023-02-04T06:32:30.782Z,100.00
2023-02-04T06:34:59.209Z,100.00
2023-02-04T06:37:27.847Z,100.00
2023-02-04T06:39:58.332Z,100.00
2023-02-04T06:42:26.809Z,100.00
2023-02-04T06:44:55.343Z,100.00
2023-02-04T06:47:24.702Z,100.00
2023-02-04T06:49:53.255Z,100.00
2023-02-04T06:52:21.795Z,100.00
2023-02-04T06:54:51.141Z,100.00
2023-02-04T06:57:19.767Z,100.00
2023-02-04T06:59:48.415Z,100.00
2023-02-04T07:02:17.032Z,100.00
2023-02-04T07:04:47.667Z,100.00
2023-02-04T07:07:16.525Z,100.00
2023-02-04T07:09:44.982Z,100.00
2023-02-04T07:12:15.901Z,100.00
2023-02-04T07:14:44.854Z,100.00
2023-02-04T07:17:13.320Z,100.00
2023-02-04T07:19:41.843Z,100.00
2023-02-04T07:22:11.096Z,100.00
2023-02-04T07:24:39.551Z,100.00
2023-02-04T07:27:08.356Z,100.00
2023-02-04T07:29:36.940Z,100.00
2023-02-04T07:32:06.219Z,100.00
2023-02-04T07:34:35.273Z,100.00
2023-02-04T07:37:04.588Z,100.00
2023-02-04T07:39:33.414Z,100.00
2023-02-04T07:42:01.933Z,100.00
2023-02-04T07:44:35.108Z,100.00
2023-02-04T07:47:03.865Z,100.00
2023-02-04T07:49:32.494Z,100.00
2023-02-04T07:52:01.216Z,100.00
2023-02-04T07:54:29.659Z,100.00
2023-02-04T07:56:58.122Z,100.00
2023-02-04T07:59:26.706Z,100.00
2023-02-04T08:01:55.235Z,100.00
2023-02-04T08:04:23.695Z,100.00
2023-02-04T08:06:52.191Z,100.00
2023-02-04T08:09:20.727Z,100.00
2023-02-04T08:11:49.179Z,100.00
2023-02-04T08:14:17.679Z,100.00
2023-02-04T08:16:46.134Z,100.00
2023-02-04T08:19:19.317Z,100.00
2023-02-04T08:21:48.712Z,100.00
2023-02-04T08:24:17.996Z,100.00
2023-02-04T08:26:46.933Z,100.00
2023-02-04T08:29:15.400Z,100.00
2023-02-04T08:31:44.528Z,100.00
2023-02-04T08:34:13.101Z,100.00
2023-02-04T08:36:41.552Z,100.00
2023-02-04T08:39:10.041Z,100.00
2023-02-04T08:41:38.902Z,100.00
2023-02-04T08:44:07.689Z,100.00
2023-02-04T08:46:36.186Z,100.00
2023-02-04T08:49:04.718Z,100.00
2023-02-04T08:51:33.383Z,100.00
2023-02-04T08:54:02.296Z,100.00
2023-02-04T08:56:31.554Z,100.00
2023-02-04T08:58:59.919Z,100.00
2023-02-04T09:01:28.387Z,100.00
2023-02-04T09:03:56.942Z,100.00
2023-02-04T09:06:25.419Z,98.82
2023-02-04T09:08:53.919Z,98.67
2023-02-04T09:11:22.437Z,98.64
2023-02-04T09:13:50.847Z,98.92
2023-02-04T09:16:19.436Z,98.80
2023-02-04T09:18:47.967Z,94.42
2023-02-04T09:21:16.379Z,92.58
2023-02-04T09:23:46.940Z,94.40
2023-02-04T09:26:15.457Z,91.09
2023-02-04T09:28:44.477Z,90.33
2023-02-04T09:31:13.237Z,85.85
2023-02-04T09:33:42.680Z,81.60
2023-02-04T09:36:11.214Z,78.88
2023-02-04T09:38:39.668Z,78.53
2023-02-04T09:41:12.144Z,75.13
2023-02-04T09:43:45.362Z,71.63
2023-02-04T09:46:24.176Z,71.62
2023-02-04T09:48:52.672Z,71.28
2023-02-04T09:51:25.732Z,72.26
2023-02-04T09:54:02.328Z,71.03
2023-02-04T09:56:31.866Z,69.72
2023-02-04T09:59:00.580Z,66.80
2023-02-04T10:01:29.721Z,66.77
2023-02-04T10:04:01.906Z,68.43
2023-02-04T10:06:30.774Z,66.62
2023-02-04T10:09:00.122Z,67.49
2023-02-04T10:11:34.678Z,66.49
2023-02-04T10:14:03.249Z,67.93
2023-02-04T10:16:35.362Z,69.94
2023-02-04T10:19:07.692Z,69.67
2023-02-04T10:21:37.660Z,65.92
2023-02-04T10:24:15.781Z,64.81
2023-02-04T10:26:44.876Z,65.63
2023-02-04T10:29:14.658Z,64.07
2023-02-04T10:31:48.444Z,62.15
2023-02-04T10:34:32.693Z,61.61
2023-02-04T10:37:13.812Z,60.48
2023-02-04T10:39:43.563Z,60.28
2023-02-04T10:42:48.076Z,59.61
2023-02-04T10:45:28.202Z,60.86
2023-02-04T10:47:57.608Z,61.16
2023-02-04T10:50:29.642Z,61.33
2023-02-04T10:53:18.709Z,61.14
2023-02-04T10:55:49.278Z,60.97
2023-02-04T10:58:25.193Z,61.86
2023-02-04T11:00:53.597Z,61.56
2023-02-04T11:03:31.100Z,60.76
2023-02-04T11:06:01.352Z,61.38
2023-02-04T11:08:37.858Z,63.19
2023-02-04T11:11:14.607Z,63.05
2023-02-04T11:14:04.472Z,63.57
2023-02-04T11:16:35.903Z,64.28
2023-02-04T11:19:12.982Z,63.33
2023-02-04T11:21:45.554Z,62.88
2023-02-04T11:24:16.784Z,62.46
2023-02-04T11:26:47.794Z,63.51
2023-02-04T11:29:16.170Z,62.87
2023-02-04T11:31:58.536Z,63.28
2023-02-04T11:34:29.759Z,61.85
2023-02-04T11:37:01.252Z,59.75
2023-02-04T11:39:43.924Z,58.51
2023-02-04T11:42:43.515Z,55.75
2023-02-04T11:45:20.320Z,57.58
2023-02-04T11:47:50.747Z,58.60
2023-02-04T11:50:26.762Z,58.16
2023-02-04T11:52:55.673Z,58.27
2023-02-04T11:55:25.089Z,59.33
2023-02-04T11:57:56.094Z,58.46
2023-02-04T12:00:29.162Z,58.70
2023-02-04T12:03:06.475Z,58.18
2023-02-04T12:05:44.668Z,56.28
2023-02-04T12:08:37.058Z,55.76
2023-02-04T12:11:12.027Z,56.17
2023-02-04T12:13:53.234Z,56.24
2023-02-04T12:16:21.797Z,56.56
2023-02-04T12:18:50.912Z,56.99
2023-02-04T12:21:19.927Z,57.38
2023-02-04T12:23:48.701Z,58.45
2023-02-04T12:26:17.247Z,59.08
2023-02-04T12:28:45.898Z,59.83
2023-02-04T12:31:15.471Z,56.84
2023-02-04T12:33:44.178Z,54.40
2023-02-04T12:36:12.785Z,54.38
2023-02-04T12:38:41.310Z,55.48
2023-02-04T12:41:10.553Z,55.01
2023-02-04T12:43:39.545Z,56.89
2023-02-04T12:46:08.035Z,57.88
2023-02-04T12:48:36.538Z,58.72
2023-02-04T12:51:05.345Z,56.71
2023-02-04T12:53:34.378Z,52.28
2023-02-04T12:56:02.941Z,52.17
2023-02-04T12:58:31.362Z,54.47
2023-02-04T13:00:59.891Z,55.33
2023-02-04T13:03:28.474Z,54.87
2023-02-04T13:05:57.531Z,55.17
2023-02-04T13:08:26.153Z,55.47
2023-02-04T13:10:55.697Z,56.74
2023-02-04T13:13:24.346Z,57.91
2023-02-04T13:15:52.852Z,57.87
2023-02-04T13:18:21.336Z,57.66
2023-02-04T13:20:49.870Z,54.41
2023-02-04T13:23:18.320Z,54.71
2023-02-04T13:25:46.866Z,56.01
2023-02-04T13:28:15.548Z,57.13
2023-02-04T13:30:44.136Z,58.20
2023-02-04T13:33:12.906Z,59.60
2023-02-04T13:35:41.439Z,60.76
2023-02-04T13:38:09.868Z,62.74
2023-02-04T13:40:39.629Z,63.88
2023-02-04T13:43:08.474Z,64.49
2023-02-04T13:45:36.945Z,66.39
2023-02-04T13:48:05.345Z,68.01
2023-02-04T13:50:34.279Z,70.24
2023-02-04T13:53:02.994Z,65.73
2023-02-04T13:55:31.792Z,55.94
2023-02-04T13:58:00.492Z,55.10
2023-02-04T14:00:28.965Z,47.46
2023-02-04T14:02:57.917Z,43.81
2023-02-04T14:05:26.875Z,42.07
2023-02-04T14:07:55.570Z,42.28
2023-02-04T14:10:25.479Z,47.48
2023-02-04T14:12:54.667Z,51.45
2023-02-04T14:15:23.194Z,52.66
2023-02-04T14:17:51.606Z,55.80
2023-02-04T14:20:20.245Z,60.15
2023-02-04T14:22:48.667Z,63.80
2023-02-04T14:25:17.178Z,63.53
2023-02-04T14:27:45.752Z,61.24
2023-02-04T14:30:23.327Z,60.55
2023-02-04T14:32:52.330Z,59.55
2023-02-04T14:35:21.551Z,60.91
2023-02-04T14:37:50.647Z,63.45
2023-02-04T14:40:20.635Z,66.17
2023-02-04T14:42:49.283Z,68.64
2023-02-04T14:45:17.919Z,68.74
2023-02-04T14:47:46.579Z,68.94
2023-02-04T14:50:17.764Z,65.77
2023-02-04T14:52:46.210Z,64.78
2023-02-04T14:55:15.838Z,64.22
2023-02-04T14:57:44.332Z,64.76
2023-02-04T15:00:14.024Z,65.79
2023-02-04T15:02:42.990Z,66.40
2023-02-04T15:05:11.817Z,67.45
2023-02-04T15:07:40.305Z,68.27
2023-02-04T15:10:10.537Z,70.66
2023-02-04T15:12:39.166Z,74.41
2023-02-04T15:15:07.943Z,75.61
2023-02-04T15:17:36.429Z,74.60
2023-02-04T15:20:05.777Z,73.87
2023-02-04T15:22:35.070Z,71.67
2023-02-04T15:25:03.976Z,71.81
2023-02-04T15:27:32.443Z,71.39
2023-02-04T15:30:00.882Z,71.54
2023-02-04T15:32:29.479Z,70.62
2023-02-04T15:34:57.936Z,70.07
2023-02-04T15:37:26.723Z,70.78
2023-02-04T15:39:57.074Z,70.46
2023-02-04T15:42:25.618Z,69.29
2023-02-04T15:44:54.067Z,69.47
2023-02-04T15:47:22.595Z,71.02
2023-02-04T15:49:51.207Z,69.84
2023-02-04T15:52:25.201Z,71.02
2023-02-04T15:54:54.409Z,71.86
2023-02-04T15:57:22.896Z,72.34
2023-02-04T15:59:51.353Z,72.60
2023-02-04T16:02:20.558Z,70.61
2023-02-04T16:04:49.699Z,70.92
2023-02-04T16:07:18.179Z,70.53
2023-02-04T16:09:47.020Z,70.58
2023-02-04T16:12:15.572Z,70.38
2023-02-04T16:14:44.003Z,70.82
2023-02-04T16:17:12.533Z,71.09
2023-02-04T16:19:41.046Z,72.59
2023-02-04T16:22:09.513Z,72.50
2023-02-04T16:24:39.155Z,73.08
2023-02-04T16:27:07.536Z,73.10
2023-02-04T16:29:36.017Z,72.53
2023-02-04T16:32:04.647Z,72.91
2023-02-04T16:34:33.097Z,73.77
2023-02-04T16:37:01.585Z,74.57
2023-02-04T16:39:30.080Z,74.05
2023-02-04T16:41:58.592Z,73.21
2023-02-04T16:44:27.117Z,73.55
2023-02-04T16:46:55.570Z,72.90
2023-02-04T16:49:24.150Z,71.84
2023-02-04T16:51:52.578Z,71.05
2023-02-04T16:54:21.001Z,70.70
2023-02-04T16:56:49.571Z,71.53
2023-02-04T16:59:18.044Z,71.80
2023-02-04T17:01:46.556Z,71.84
2023-02-04T17:04:15.040Z,72.27
2023-02-04T17:06:43.501Z,71.51
2023-02-04T17:09:12.198Z,73.03
2023-02-04T17:11:41.229Z,72.04
2023-02-04T17:14:16.059Z,73.04
2023-02-04T17:16:46.307Z,73.19
2023-02-04T17:19:21.375Z,74.17
2023-02-04T17:21:49.875Z,75.12
2023-02-04T17:24:18.398Z,76.58
2023-02-04T17:26:47.028Z,78.37
2023-02-04T17:29:22.190Z,83.35
2023-02-04T17:31:52.978Z,86.15
2023-02-04T17:34:21.452Z,85.18
2023-02-04T17:36:49.941Z,84.03
2023-02-04T17:39:18.354Z,87.13
2023-02-04T17:41:46.905Z,87.41
2023-02-04T17:44:20.359Z,88.31
2023-02-04T17:46:48.864Z,89.59
2023-02-04T17:49:17.402Z,90.54
2023-02-04T17:51:45.942Z,91.14
2023-02-04T17:54:14.882Z,91.26
2023-02-04T17:56:43.293Z,91.17
2023-02-04T17:59:11.935Z,91.48
2023-02-04T18:01:42.167Z,90.31
2023-02-04T18:04:14.320Z,89.68
2023-02-04T18:06:42.820Z,90.37
2023-02-04T18:09:20.398Z,90.69
2023-02-04T18:11:48.907Z,91.71
2023-02-04T18:14:28.041Z,91.19
2023-02-04T18:17:00.802Z,91.52
2023-02-04T18:19:31.927Z,93.19
2023-02-04T18:22:00.574Z,95.43
2023-02-04T18:24:36.447Z,97.69
2023-02-04T18:27:24.212Z,99.18
2023-02-04T18:29:55.876Z,100.00
2023-02-04T18:32:39.270Z,100.00
2023-02-04T18:35:23.082Z,100.00
2023-02-04T18:37:53.533Z,100.00
2023-02-04T18:40:26.889Z,100.00
2023-02-04T18:43:21.318Z,100.00
2023-02-04T18:45:49.852Z,100.00
2023-02-04T18:48:21.468Z,100.00
2023-02-04T18:50:52.302Z,100.00
2023-02-04T18:53:25.708Z,100.00
2023-02-04T18:55:55.852Z,100.00
2023-02-04T18:58:46.435Z,100.00
2023-02-04T19:01:24.162Z,100.00
2023-02-04T19:04:01.574Z,100.00
2023-02-04T19:06:37.677Z,100.00
2023-02-04T19:09:15.715Z,100.00
2023-02-04T19:11:45.778Z,100.00
2023-02-04T19:14:35.736Z,100.00
2023-02-04T19:17:33.526Z,100.00
2023-02-04T19:20:17.806Z,100.00
2023-02-04T19:22:53.752Z,100.00
2023-02-04T19:25:22.315Z,100.00
2023-02-04T19:27:55.231Z,100.00
2023-02-04T19:30:26.791Z,100.00
2023-02-04T19:32:57.857Z,100.00
2023-02-04T19:35:29.324Z,100.00
2023-02-04T19:38:03.534Z,100.00
2023-02-04T19:40:38.716Z,100.00
2023-02-04T19:43:21.445Z,100.00
2023-02-04T19:45:51.988Z,100.00
2023-02-04T19:48:22.884Z,100.00
2023-02-04T19:50:53.553Z,100.00
2023-02-04T19:53:27.403Z,100.00
2023-02-04T19:55:56.382Z,100.00
2023-02-04T19:58:28.971Z,100.00
2023-02-04T20:01:08.588Z,100.00
2023-02-04T20:03:47.520Z,100.00
2023-02-04T20:06:22.738Z,99.63
2023-02-04T20:09:01.393Z,99.68
2023-02-04T20:11:35.756Z,99.54
2023-02-04T20:14:16.328Z,99.93
2023-02-04T20:16:57.776Z,99.95
2023-02-04T20:19:35.904Z,99.90
2023-02-04T20:22:20.851Z,99.92
2023-02-04T20:24:53.436Z,100.00
2023-02-04T20:27:29.153Z,100.00
2023-02-04T20:30:22.402Z,100.00
2023-02-04T20:32:55.656Z,100.00
2023-02-04T20:35:24.060Z,100.00
2023-02-04T20:37:59.816Z,100.00
2023-02-04T20:40:35.747Z,100.00
2023-02-04T20:43:12.428Z,100.00
2023-02-04T20:45:50.728Z,100.00
2023-02-04T20:48:20.244Z,100.00
2023-02-04T20:50:52.450Z,100.00
2023-02-04T20:53:48.379Z,100.00
2023-02-04T20:56:35.764Z,100.00
2023-02-04T20:59:43.087Z,100.00
2023-02-04T21:02:18.443Z,100.00
2023-02-04T21:04:54.118Z,100.00
2023-02-04T21:07:23.239Z,100.00
2023-02-04T21:09:51.872Z,100.00
2023-02-04T21:12:21.819Z,100.00
2023-02-04T21:14:50.611Z,100.00
2023-02-04T21:17:19.163Z,100.00
2023-02-04T21:19:47.609Z,100.00
2023-02-04T21:22:16.133Z,100.00
2023-02-04T21:24:44.952Z,100.00
2023-02-04T21:27:14.225Z,100.00
2023-02-04T21:29:42.720Z,100.00
2023-02-04T21:32:11.181Z,100.00
2023-02-04T21:34:39.691Z,100.00
2023-02-04T21:37:08.118Z,100.00
2023-02-04T21:39:36.613Z,100.00
2023-02-04T21:42:10.894Z,100.00
2023-02-04T21:44:40.903Z,100.00
2023-02-04T21:47:09.367Z,100.00
2023-02-04T21:49:41.241Z,100.00
2023-02-04T21:52:11.303Z,99.66
2023-02-04T21:54:39.808Z,98.86
2023-02-04T21:57:08.268Z,97.84
2023-02-04T21:59:36.975Z,98.57
2023-02-04T22:02:05.550Z,99.36
2023-02-04T22:04:34.022Z,99.55
2023-02-04T22:07:03.053Z,100.00
2023-02-04T22:09:31.599Z,100.00
2023-02-04T22:12:00.096Z,99.76
2023-02-04T22:14:47.522Z,100.00
2023-02-04T22:17:15.973Z,100.00
2023-02-04T22:19:44.484Z,100.00
2023-02-04T22:22:12.959Z,100.00
2023-02-04T22:24:41.428Z,100.00
2023-02-04T22:27:09.901Z,100.00
2023-02-04T22:29:38.524Z,100.00
2023-02-04T22:32:07.284Z,100.00
2023-02-04T22:34:35.774Z,100.00
2023-02-04T22:37:04.276Z,100.00
2023-02-04T22:39:32.710Z,100.00
2023-02-04T22:42:01.278Z,100.00
2023-02-04T22:44:29.849Z,100.00
2023-02-04T22:46:58.389Z,100.00
2023-02-04T22:49:26.872Z,100.00
2023-02-04T22:51:55.547Z,100.00
2023-02-04T22:54:24.001Z,100.00
2023-02-04T22:56:52.436Z,100.00
2023-02-04T22:59:20.886Z,100.00
2023-02-04T23:01:49.408Z,100.00
2023-02-04T23:04:18.424Z,100.00
2023-02-04T23:06:46.886Z,100.00
2023-02-04T23:09:16.296Z,100.00
2023-02-04T23:11:44.911Z,100.00
2023-02-04T23:14:13.404Z,100.00
2023-02-04T23:16:42.196Z,100.00
2023-02-04T23:19:10.691Z,100.00
2023-02-04T23:21:39.346Z,100.00
2023-02-04T23:24:08.143Z,100.00
2023-02-04T23:26:36.706Z,100.00
2023-02-04T23:29:05.304Z,100.00
2023-02-04T23:31:33.818Z,100.00
2023-02-04T23:34:02.217Z,100.00
2023-02-04T23:36:30.739Z,100.00
2023-02-04T23:38:59.672Z,100.00
2023-02-04T23:41:28.958Z,100.00
2023-02-04T23:43:57.414Z,100.00
2023-02-04T23:46:25.829Z,100.00
2023-02-04T23:48:54.418Z,100.00
2023-02-04T23:51:22.884Z,100.00
2023-02-04T23:53:51.340Z,100.00
2023-02-04T23:56:19.849Z,100.00
2023-02-04T23:58:48.264Z,100.00
